createdAt,value
2022-07-28T00:01:07.357Z,0.10
2022-07-28T00:03:33.805Z,0.10
2022-07-28T00:06:00.216Z,0.10
2022-07-28T00:08:26.546Z,0.05
2022-07-28T00:10:52.910Z,0.10
2022-07-28T00:13:19.248Z,0.20
2022-07-28T00:15:45.586Z,0.10
2022-07-28T00:18:11.951Z,0.10
2022-07-28T00:20:38.333Z,0.10
2022-07-28T00:23:04.747Z,0.10
2022-07-28T00:25:31.152Z,0.10
2022-07-28T00:27:57.483Z,0.10
2022-07-28T00:30:23.832Z,0.10
2022-07-28T00:32:50.390Z,0.05
2022-07-28T00:35:16.716Z,0.00
2022-07-28T00:37:56.533Z,0.10
2022-07-28T00:40:22.858Z,0.00
2022-07-28T00:42:49.241Z,0.00
2022-07-28T00:45:15.593Z,0.10
2022-07-28T00:47:41.908Z,0.05
2022-07-28T00:50:08.423Z,0.20
2022-07-28T00:52:34.935Z,0.10
2022-07-28T00:55:02.868Z,0.10
2022-07-28T00:57:29.211Z,0.10
2022-07-28T00:59:55.633Z,0.20
2022-07-28T01:02:22.107Z,0.10
2022-07-28T01:04:48.570Z,0.10
2022-07-28T01:07:19.269Z,0.00
2022-07-28T01:09:51.547Z,0.10
2022-07-28T01:12:33.211Z,0.10
2022-07-28T01:15:18.429Z,0.10
2022-07-28T01:17:48.097Z,0.10
2022-07-28T01:20:20.632Z,0.10
2022-07-28T01:22:56.088Z,0.10
2022-07-28T01:25:48.419Z,0.10
2022-07-28T01:28:27.254Z,0.00
2022-07-28T01:30:55.275Z,0.10
2022-07-28T01:33:24.182Z,0.10
2022-07-28T01:35:59.318Z,0.10
2022-07-28T01:38:26.409Z,0.10
2022-07-28T01:40:54.257Z,0.10
2022-07-28T01:43:21.676Z,0.10
2022-07-28T01:45:48.030Z,0.10
2022-07-28T01:48:15.225Z,0.10
2022-07-28T01:50:42.591Z,0.10
2022-07-28T01:53:10.932Z,0.10
2022-07-28T01:55:38.339Z,0.10
2022-07-28T01:58:04.833Z,0.10
2022-07-28T02:00:31.754Z,0.10
2022-07-28T02:03:00.910Z,0.10
2022-07-28T02:05:27.768Z,0.10
2022-07-28T02:07:55.560Z,0.10
2022-07-28T02:10:22.860Z,0.10
2022-07-28T02:12:50.210Z,0.10
2022-07-28T02:15:16.600Z,0.10
2022-07-28T02:17:45.302Z,0.20
2022-07-28T02:20:12.743Z,0.10
2022-07-28T02:22:40.384Z,0.13
2022-07-28T02:25:07.423Z,0.10
2022-07-28T02:27:39.809Z,0.10
2022-07-28T02:30:09.496Z,0.10
2022-07-28T02:32:45.063Z,0.10
2022-07-28T02:35:16.651Z,0.10
2022-07-28T02:37:46.565Z,0.15
2022-07-28T02:40:14.835Z,0.10
2022-07-28T02:42:41.974Z,0.20
2022-07-28T02:45:09.313Z,0.20
2022-07-28T02:47:38.561Z,0.10
2022-07-28T02:50:05.791Z,0.10
2022-07-28T02:52:33.226Z,0.10
2022-07-28T02:55:00.666Z,0.10
2022-07-28T02:57:27.511Z,0.10
2022-07-28T02:59:54.346Z,0.05
2022-07-28T03:02:21.659Z,0.10
2022-07-28T03:04:58.933Z,0.10
2022-07-28T03:07:26.461Z,0.10
2022-07-28T03:09:52.798Z,0.10
2022-07-28T03:12:19.308Z,0.13
2022-07-28T03:14:45.756Z,0.10
2022-07-28T03:17:12.207Z,0.10
2022-07-28T03:19:39.078Z,0.10
2022-07-28T03:22:05.418Z,0.10
2022-07-28T03:24:34.158Z,0.20
2022-07-28T03:27:19.339Z,0.10
2022-07-28T03:29:47.882Z,0.10
2022-07-28T03:32:14.215Z,0.10
2022-07-28T03:34:40.631Z,0.10
2022-07-28T03:37:11.907Z,0.10
2022-07-28T03:39:41.733Z,0.10
2022-07-28T03:42:09.101Z,0.10
2022-07-28T03:44:35.467Z,0.10
2022-07-28T03:47:01.850Z,0.10
2022-07-28T03:49:28.177Z,0.10
2022-07-28T03:51:54.565Z,0.10
2022-07-28T03:54:20.955Z,0.10
2022-07-28T03:56:47.455Z,0.10
2022-07-28T03:59:13.818Z,0.10
2022-07-28T04:01:40.363Z,0.10
2022-07-28T04:04:06.864Z,0.10
2022-07-28T04:06:33.249Z,0.20
2022-07-28T04:08:59.606Z,0.15
2022-07-28T04:11:26.057Z,0.10
2022-07-28T04:13:52.377Z,0.10
2022-07-28T04:16:18.839Z,0.10
2022-07-28T04:18:48.765Z,0.10
2022-07-28T04:21:15.139Z,0.10
2022-07-28T04:23:41.603Z,0.10
2022-07-28T04:26:07.935Z,0.10
2022-07-28T04:28:34.348Z,0.10
2022-07-28T04:31:00.812Z,0.10
2022-07-28T04:33:27.224Z,0.10
2022-07-28T04:35:53.672Z,0.10
2022-07-28T04:38:20.948Z,0.10
2022-07-28T04:40:47.553Z,0.10
2022-07-28T04:43:14.022Z,0.10
2022-07-28T04:45:46.013Z,0.10
2022-07-28T04:48:20.664Z,0.10
2022-07-28T04:50:47.109Z,0.10
2022-07-28T04:53:13.593Z,0.10
2022-07-28T04:55:39.988Z,0.10
2022-07-28T04:58:06.798Z,0.10
2022-07-28T05:00:35.713Z,0.00
2022-07-28T05:03:03.568Z,0.00
2022-07-28T05:05:29.972Z,0.10
2022-07-28T05:07:56.442Z,0.20
2022-07-28T05:10:22.828Z,0.15
2022-07-28T05:12:49.427Z,0.10
2022-07-28T05:15:15.821Z,0.10
2022-07-28T05:17:42.218Z,0.20
2022-07-28T05:20:09.636Z,0.30
2022-07-28T05:22:42.734Z,0.20
2022-07-28T05:25:16.258Z,0.10
2022-07-28T05:27:42.747Z,0.17
2022-07-28T05:30:10.083Z,0.20
2022-07-28T05:32:36.482Z,0.10
2022-07-28T05:35:03.004Z,0.10
2022-07-28T05:37:29.404Z,0.20
2022-07-28T05:39:55.752Z,0.20
2022-07-28T05:42:22.081Z,0.10
2022-07-28T05:44:48.393Z,0.10
2022-07-28T05:47:14.870Z,0.10
2022-07-28T05:49:41.263Z,0.10
2022-07-28T05:52:07.587Z,0.10
2022-07-28T05:54:34.092Z,0.20
2022-07-28T05:57:00.423Z,0.10
2022-07-28T05:59:26.775Z,0.30
2022-07-28T06:01:53.235Z,0.10
2022-07-28T06:04:28.314Z,0.10
2022-07-28T06:06:55.410Z,0.20
2022-07-28T06:09:21.759Z,0.20
2022-07-28T06:11:49.835Z,0.30
2022-07-28T06:14:16.691Z,0.30
2022-07-28T06:16:43.559Z,0.13
2022-07-28T06:19:09.977Z,0.20
2022-07-28T06:21:36.430Z,0.20
2022-07-28T06:24:02.761Z,0.30
2022-07-28T06:26:29.128Z,0.50
2022-07-28T06:28:55.629Z,0.40
2022-07-28T06:31:22.064Z,0.20
2022-07-28T06:33:48.438Z,0.20
2022-07-28T06:36:14.882Z,0.28
2022-07-28T06:38:41.240Z,0.10
2022-07-28T06:41:07.586Z,0.30
2022-07-28T06:43:36.795Z,0.10
2022-07-28T06:46:05.050Z,0.20
2022-07-28T06:48:31.413Z,0.30
2022-07-28T06:50:59.744Z,0.75
2022-07-28T06:53:26.794Z,0.65
2022-07-28T06:55:58.235Z,0.60
2022-07-28T06:58:25.377Z,0.40
2022-07-28T07:00:51.765Z,0.20
2022-07-28T07:03:18.114Z,0.40
2022-07-28T07:05:44.494Z,0.20
2022-07-28T07:08:10.820Z,0.30
2022-07-28T07:10:37.164Z,0.20
2022-07-28T07:13:03.616Z,0.13
2022-07-28T07:15:30.069Z,0.10
2022-07-28T07:17:57.668Z,0.10
2022-07-28T07:20:24.028Z,0.10
2022-07-28T07:22:50.396Z,0.20
2022-07-28T07:25:17.667Z,0.50
2022-07-28T07:27:44.148Z,0.40
2022-07-28T07:30:11.040Z,0.57
2022-07-28T07:32:38.091Z,0.30
2022-07-28T07:35:05.054Z,0.35
2022-07-28T07:37:34.107Z,0.40
2022-07-28T07:40:01.073Z,0.30
2022-07-28T07:42:27.597Z,0.13
2022-07-28T07:44:54.123Z,0.30
2022-07-28T07:47:20.600Z,0.28
2022-07-28T07:49:47.006Z,0.20
2022-07-28T07:52:13.698Z,0.20
2022-07-28T07:54:40.021Z,0.52
2022-07-28T07:57:06.498Z,0.40
2022-07-28T07:59:32.824Z,0.40
2022-07-28T08:01:59.191Z,0.40
2022-07-28T08:04:25.817Z,0.50
2022-07-28T08:06:55.042Z,0.40
2022-07-28T08:09:22.387Z,0.30
2022-07-28T08:11:48.740Z,0.40
2022-07-28T08:14:15.431Z,0.32
2022-07-28T08:16:42.001Z,0.30
2022-07-28T08:19:08.628Z,0.40
2022-07-28T08:21:35.345Z,0.30
2022-07-28T08:24:01.703Z,0.70
2022-07-28T08:26:29.640Z,0.50
2022-07-28T08:28:56.062Z,0.68
2022-07-28T08:31:22.567Z,0.40
2022-07-28T08:33:53.335Z,0.45
2022-07-28T08:36:20.868Z,0.95
2022-07-28T08:38:47.313Z,0.57
2022-07-28T08:41:20.054Z,0.10
2022-07-28T08:43:47.924Z,0.40
2022-07-28T08:46:14.701Z,0.40
2022-07-28T08:48:42.904Z,0.40
2022-07-28T08:51:12.004Z,0.70
2022-07-28T08:53:39.747Z,0.70
2022-07-28T08:56:10.133Z,0.40
2022-07-28T08:58:37.591Z,0.40
2022-07-28T09:01:04.679Z,0.30
2022-07-28T09:03:31.320Z,0.40
2022-07-28T09:05:57.813Z,0.30
2022-07-28T09:08:24.589Z,0.20
2022-07-28T09:10:51.085Z,0.80
2022-07-28T09:13:17.931Z,0.77
2022-07-28T09:15:46.331Z,0.50
2022-07-28T09:18:13.777Z,0.50
2022-07-28T09:20:41.642Z,0.70
2022-07-28T09:23:43.401Z,0.85
2022-07-28T09:26:10.591Z,0.50
2022-07-28T09:28:48.472Z,1.40
2022-07-28T09:31:16.512Z,0.80
2022-07-28T09:34:01.995Z,1.40
2022-07-28T09:36:29.755Z,0.85
2022-07-28T09:38:56.840Z,0.65
2022-07-28T09:41:23.849Z,0.45
2022-07-28T09:43:54.981Z,1.58
2022-07-28T09:46:23.507Z,1.15
2022-07-28T09:48:52.008Z,0.90
2022-07-28T09:51:19.663Z,0.52
2022-07-28T09:53:46.223Z,0.50
2022-07-28T09:56:13.232Z,0.90
2022-07-28T09:58:40.174Z,1.00
2022-07-28T10:01:13.560Z,1.33
2022-07-28T10:03:40.914Z,0.98
2022-07-28T10:06:11.467Z,0.82
2022-07-28T10:08:41.977Z,0.40
2022-07-28T10:11:08.711Z,0.57
2022-07-28T10:13:35.343Z,0.28
2022-07-28T10:16:11.422Z,0.30
2022-07-28T10:18:41.007Z,0.50
2022-07-28T10:21:08.336Z,0.50
2022-07-28T10:23:36.990Z,0.28
2022-07-28T10:26:03.445Z,0.60
2022-07-28T10:28:42.256Z,1.20
2022-07-28T10:33:36.780Z,0.70
2022-07-28T10:36:03.360Z,0.75
2022-07-28T10:38:36.098Z,0.82
2022-07-28T10:41:03.701Z,0.60
2022-07-28T10:43:33.245Z,0.30
2022-07-28T10:46:06.008Z,1.05
2022-07-28T10:48:35.776Z,0.90
2022-07-28T10:51:02.253Z,1.00
2022-07-28T10:53:28.626Z,0.60
2022-07-28T10:55:59.449Z,0.52
2022-07-28T10:58:28.589Z,0.53
2022-07-28T11:01:02.083Z,0.43
2022-07-28T11:03:45.048Z,0.50
2022-07-28T11:06:28.372Z,0.50
2022-07-28T11:08:55.674Z,0.70
2022-07-28T11:11:40.581Z,0.55
2022-07-28T11:14:24.461Z,1.27
2022-07-28T11:17:00.029Z,0.70
2022-07-28T11:19:36.640Z,1.10
2022-07-28T11:22:14.265Z,0.60
2022-07-28T11:25:21.116Z,0.40
2022-07-28T11:27:52.082Z,0.47
2022-07-28T11:30:18.973Z,0.20
2022-07-28T11:32:51.373Z,0.30
2022-07-28T11:35:18.673Z,0.30
2022-07-28T11:38:03.540Z,0.70
2022-07-28T11:40:35.886Z,0.52
2022-07-28T11:43:21.329Z,0.50
2022-07-28T11:46:12.288Z,0.32
2022-07-28T11:48:39.973Z,0.60
2022-07-28T11:51:06.351Z,0.30
2022-07-28T11:53:43.523Z,0.20
2022-07-28T11:56:13.908Z,0.30
2022-07-28T11:58:40.729Z,0.38
2022-07-28T12:01:13.304Z,0.40
2022-07-28T12:03:53.979Z,0.52
2022-07-28T12:08:58.430Z,0.65
2022-07-28T12:11:25.606Z,0.40
2022-07-28T12:14:01.908Z,0.30
2022-07-28T12:16:29.031Z,0.40
2022-07-28T12:18:55.487Z,0.28
2022-07-28T12:21:37.600Z,0.30
2022-07-28T12:24:13.993Z,0.43
2022-07-28T12:26:41.911Z,0.50
2022-07-28T12:29:15.085Z,0.28
2022-07-28T12:32:11.058Z,0.20
2022-07-28T12:34:39.850Z,0.28
2022-07-28T12:37:09.712Z,0.30
2022-07-28T12:39:38.536Z,0.50
2022-07-28T12:42:08.785Z,0.50
2022-07-28T12:44:39.515Z,0.70
2022-07-28T12:47:08.023Z,0.40
2022-07-28T12:49:35.367Z,0.50
2022-07-28T12:52:17.882Z,0.30
2022-07-28T12:54:50.459Z,0.30
2022-07-28T12:57:46.134Z,0.30
2022-07-28T13:00:18.887Z,0.50
2022-07-28T13:02:45.560Z,0.30
2022-07-28T13:05:26.344Z,0.20
2022-07-28T13:07:58.102Z,0.20
2022-07-28T13:10:24.535Z,0.25
2022-07-28T13:13:00.675Z,0.52
2022-07-28T13:15:27.027Z,0.50
2022-07-28T13:17:53.539Z,0.40
2022-07-28T13:20:20.552Z,0.40
2022-07-28T13:22:46.890Z,0.57
2022-07-28T13:25:13.455Z,0.38
2022-07-28T13:27:41.251Z,0.40
2022-07-28T13:30:08.414Z,0.40
2022-07-28T13:32:34.853Z,0.50
2022-07-28T13:35:01.342Z,0.60
2022-07-28T13:37:28.775Z,0.40
2022-07-28T13:39:55.097Z,0.32
2022-07-28T13:42:21.683Z,0.57
2022-07-28T13:44:50.317Z,0.57
2022-07-28T13:47:16.719Z,0.40
2022-07-28T13:49:43.898Z,0.57
2022-07-28T13:52:17.063Z,0.47
2022-07-28T13:54:55.958Z,0.45
2022-07-28T13:57:22.304Z,0.30
2022-07-28T13:59:48.920Z,0.20
2022-07-28T14:02:20.095Z,0.25
2022-07-28T14:04:50.221Z,0.50
2022-07-28T14:07:20.366Z,0.60
2022-07-28T14:09:47.325Z,0.50
2022-07-28T14:12:14.217Z,0.40
2022-07-28T14:14:40.601Z,0.35
2022-07-28T14:17:42.435Z,0.47
2022-07-28T14:20:01.092Z,0.40
2022-07-28T14:22:27.507Z,0.45
2022-07-28T14:24:53.904Z,1.48
2022-07-28T14:27:20.289Z,0.70
2022-07-28T14:29:47.003Z,0.40
2022-07-28T14:32:13.419Z,0.35
2022-07-28T14:34:40.015Z,0.90
2022-07-28T14:37:09.273Z,1.00
2022-07-28T14:39:36.140Z,0.50
2022-07-28T14:42:02.616Z,0.30
2022-07-28T14:44:29.014Z,0.60
2022-07-28T14:46:55.461Z,0.65
2022-07-28T14:49:21.903Z,0.30
2022-07-28T14:51:48.359Z,0.40
2022-07-28T14:54:15.081Z,0.30
2022-07-28T14:56:41.829Z,0.90
2022-07-28T14:59:08.178Z,0.50
2022-07-28T15:01:36.533Z,0.60
2022-07-28T15:04:03.547Z,0.47
2022-07-28T15:06:30.042Z,0.50
2022-07-28T15:08:57.761Z,0.70
2022-07-28T15:11:24.296Z,0.50
2022-07-28T15:13:50.646Z,0.45
2022-07-28T15:16:17.042Z,0.90
2022-07-28T15:18:44.727Z,0.73
2022-07-28T15:21:15.695Z,0.40
2022-07-28T15:23:42.391Z,0.43
2022-07-28T15:26:09.452Z,0.40
2022-07-28T15:28:35.887Z,0.60
2022-07-28T15:31:03.019Z,0.43
2022-07-28T15:33:31.882Z,0.40
2022-07-28T15:36:01.539Z,0.40
2022-07-28T15:38:28.356Z,0.30
2022-07-28T15:40:55.503Z,0.30
2022-07-28T15:43:23.879Z,0.22
2022-07-28T15:45:50.506Z,0.50
2022-07-28T15:48:17.087Z,0.40
2022-07-28T15:50:48.724Z,0.40
2022-07-28T15:53:15.796Z,0.40
2022-07-28T15:55:44.331Z,0.50
2022-07-28T15:58:14.322Z,0.38
2022-07-28T16:00:40.975Z,0.40
2022-07-28T16:03:07.501Z,0.60
2022-07-28T16:05:34.001Z,0.40
2022-07-28T16:08:00.402Z,0.30
2022-07-28T16:10:27.500Z,0.20
2022-07-28T16:12:55.922Z,0.28
2022-07-28T16:15:24.868Z,0.38
2022-07-28T16:17:51.289Z,0.35
2022-07-28T16:20:17.755Z,0.63
2022-07-28T16:22:44.111Z,0.20
2022-07-28T16:25:16.916Z,0.25
2022-07-28T16:27:44.522Z,0.30
2022-07-28T16:30:11.529Z,0.30
2022-07-28T16:32:38.444Z,0.20
2022-07-28T16:35:06.609Z,0.30
2022-07-28T16:37:33.349Z,0.20
2022-07-28T16:39:59.811Z,0.20
2022-07-28T16:42:26.146Z,0.15
2022-07-28T16:44:52.469Z,0.10
2022-07-28T16:47:18.876Z,0.20
2022-07-28T16:49:46.114Z,0.20
2022-07-28T16:52:12.762Z,0.20
2022-07-28T16:54:39.115Z,0.50
2022-07-28T16:57:06.349Z,0.55
2022-07-28T16:59:37.716Z,0.50
2022-07-28T17:02:15.287Z,0.70
2022-07-28T17:04:42.062Z,0.50
2022-07-28T17:07:08.721Z,0.35
2022-07-28T17:09:35.187Z,0.50
2022-07-28T17:12:01.564Z,0.32
2022-07-28T17:14:27.904Z,0.40
2022-07-28T17:16:54.305Z,0.20
2022-07-28T17:19:22.079Z,0.32
2022-07-28T17:21:48.614Z,0.30
2022-07-28T17:24:15.421Z,0.28
2022-07-28T17:29:28.613Z,0.30
2022-07-28T17:31:54.943Z,0.20
2022-07-28T17:34:21.459Z,0.30
2022-07-28T17:36:48.202Z,0.30
2022-07-28T17:39:14.589Z,0.40
2022-07-28T17:41:40.980Z,0.30
2022-07-28T17:44:07.438Z,0.20
2022-07-28T17:46:34.941Z,0.30
2022-07-28T17:49:02.208Z,0.20
2022-07-28T17:51:28.839Z,0.20
2022-07-28T17:53:55.640Z,0.40
2022-07-28T17:56:22.151Z,0.30
2022-07-28T17:58:48.514Z,0.30
2022-07-28T18:01:15.260Z,0.20
2022-07-28T18:03:56.523Z,0.20
2022-07-28T18:06:25.050Z,0.30
2022-07-28T18:08:51.374Z,0.28
2022-07-28T18:11:17.825Z,0.30
2022-07-28T18:14:03.766Z,0.32
2022-07-28T18:16:31.070Z,0.20
2022-07-28T18:18:57.469Z,0.17
2022-07-28T18:21:23.878Z,0.20
2022-07-28T18:23:50.207Z,0.10
2022-07-28T18:26:16.560Z,0.10
2022-07-28T18:28:45.325Z,0.20
2022-07-28T18:31:11.773Z,0.10
2022-07-28T18:33:40.377Z,0.30
2022-07-28T18:36:06.883Z,0.20
2022-07-28T18:38:33.203Z,0.10
2022-07-28T18:40:59.548Z,0.10
2022-07-28T18:43:25.854Z,0.05
2022-07-28T18:45:52.238Z,0.15
2022-07-28T18:48:18.755Z,0.10
2022-07-28T18:50:45.105Z,0.10
2022-07-28T18:53:11.753Z,0.20
2022-07-28T18:55:40.124Z,0.10
2022-07-28T18:58:06.451Z,0.10
2022-07-28T19:00:33.728Z,0.15
2022-07-28T19:03:00.188Z,0.10
2022-07-28T19:05:27.713Z,0.10
2022-07-28T19:08:03.836Z,0.10
2022-07-28T19:10:30.207Z,0.17
2022-07-28T19:12:56.520Z,0.10
2022-07-28T19:15:23.030Z,0.17
2022-07-28T19:18:10.622Z,0.20
2022-07-28T19:20:35.705Z,0.10
2022-07-28T19:23:05.384Z,0.17
2022-07-28T19:25:32.024Z,0.28
2022-07-28T19:27:58.432Z,0.20
2022-07-28T19:30:24.830Z,0.10
2022-07-28T19:32:51.162Z,0.30
2022-07-28T19:35:17.690Z,0.20
2022-07-28T19:37:44.729Z,0.30
2022-07-28T19:40:11.778Z,0.20
2022-07-28T19:42:38.329Z,0.10
2022-07-28T19:45:05.301Z,0.10
2022-07-28T19:47:31.950Z,0.20
2022-07-28T19:50:04.915Z,0.13
2022-07-28T19:52:31.323Z,0.10
2022-07-28T19:54:57.713Z,0.10
2022-07-28T19:57:24.903Z,0.10
2022-07-28T19:59:51.251Z,0.13
2022-07-28T20:02:17.621Z,0.20
2022-07-28T20:04:44.028Z,0.10
2022-07-28T20:07:10.346Z,0.10
2022-07-28T20:09:36.677Z,0.00
2022-07-28T20:12:03.526Z,0.13
2022-07-28T20:14:29.864Z,0.00
2022-07-28T20:16:56.233Z,0.10
2022-07-28T20:19:22.782Z,0.10
2022-07-28T20:21:49.118Z,0.03
2022-07-28T20:24:15.930Z,0.10
2022-07-28T20:26:42.613Z,0.10
2022-07-28T20:29:09.030Z,0.10
2022-07-28T20:31:36.770Z,0.10
2022-07-28T20:34:06.846Z,0.00
2022-07-28T20:36:36.392Z,0.10
2022-07-28T20:39:11.512Z,0.10
2022-07-28T20:41:50.729Z,0.10
2022-07-28T20:44:33.032Z,0.10
2022-07-28T20:47:00.816Z,0.10
2022-07-28T20:49:30.117Z,0.00
2022-07-28T20:51:57.753Z,0.10
2022-07-28T20:54:24.834Z,0.10
2022-07-28T20:56:51.177Z,0.00
2022-07-28T20:59:17.592Z,0.10
2022-07-28T21:01:43.991Z,0.10
2022-07-28T21:04:11.345Z,0.08
2022-07-28T21:06:37.946Z,0.10
2022-07-28T21:09:04.993Z,0.20
2022-07-28T21:11:34.924Z,0.20
2022-07-28T21:14:02.021Z,0.10
2022-07-28T21:16:28.467Z,0.10
2022-07-28T21:18:54.991Z,0.10
2022-07-28T21:21:22.048Z,0.20
2022-07-28T21:23:49.380Z,0.10
2022-07-28T21:26:16.035Z,0.10
2022-07-28T21:29:01.434Z,0.10
2022-07-28T21:31:27.800Z,0.10
2022-07-28T21:33:54.352Z,0.00
2022-07-28T21:36:20.879Z,0.10
2022-07-28T21:38:47.262Z,0.20
2022-07-28T21:41:13.617Z,0.10
2022-07-28T21:43:40.056Z,0.10
2022-07-28T21:46:06.457Z,0.10
2022-07-28T21:48:32.824Z,0.10
2022-07-28T21:50:59.241Z,0.10
2022-07-28T21:53:25.919Z,0.13
2022-07-28T21:55:57.008Z,0.10
2022-07-28T21:58:23.422Z,0.10
2022-07-28T22:00:49.931Z,0.17
2022-07-28T22:03:16.286Z,0.20
2022-07-28T22:05:43.142Z,0.28
2022-07-28T22:08:09.617Z,0.10
2022-07-28T22:10:36.022Z,0.10
2022-07-28T22:13:02.403Z,0.10
2022-07-28T22:15:28.831Z,0.10
2022-07-28T22:17:55.254Z,0.10
2022-07-28T22:20:21.690Z,0.10
2022-07-28T22:22:48.064Z,0.10
2022-07-28T22:25:14.426Z,0.00
2022-07-28T22:27:40.824Z,0.10
2022-07-28T22:30:07.529Z,0.17
2022-07-28T22:32:33.857Z,0.20
2022-07-28T22:35:00.259Z,0.10
2022-07-28T22:37:26.777Z,0.20
2022-07-28T22:39:53.134Z,0.00
2022-07-28T22:42:19.481Z,0.10
2022-07-28T22:44:45.817Z,0.10
2022-07-28T22:47:12.218Z,0.20
2022-07-28T22:49:38.648Z,0.10
2022-07-28T22:52:05.165Z,0.10
2022-07-28T22:54:31.524Z,0.03
2022-07-28T22:56:57.861Z,0.00
2022-07-28T22:59:24.193Z,0.10
2022-07-28T23:01:51.450Z,0.10
2022-07-28T23:04:18.153Z,0.20
2022-07-28T23:06:44.857Z,0.20
2022-07-28T23:09:12.246Z,0.20
2022-07-28T23:11:38.768Z,0.20
2022-07-28T23:14:05.087Z,0.10
2022-07-28T23:16:31.561Z,0.20
2022-07-28T23:18:59.156Z,0.13
2022-07-28T23:21:25.555Z,0.10
2022-07-28T23:23:51.881Z,0.20
2022-07-28T23:26:18.260Z,0.20
2022-07-28T23:28:44.814Z,0.10
2022-07-28T23:31:11.213Z,0.20
2022-07-28T23:33:56.814Z,0.10
2022-07-28T23:36:26.800Z,0.10
2022-07-28T23:38:57.835Z,0.10
2022-07-28T23:41:24.662Z,0.20
2022-07-28T23:43:51.000Z,0.20
2022-07-28T23:46:17.408Z,0.30
2022-07-28T23:48:44.036Z,0.22
2022-07-28T23:51:10.390Z,0.32
2022-07-28T23:53:37.815Z,0.25
2022-07-28T23:56:04.254Z,0.35
2022-07-28T23:58:30.600Z,0.20
